Time;durP1;ratioP1;P1;durP2;ratioP2;P2;SDS_P1;SDS_P2;PMS_P1;PMS_P2;Temp;Humidity;BMP_temperature;BMP_pressure;BME280_temperature;BME280_humidity;BME280_pressure;Samples;Min_cycle;Max_cycle;Signal;HPM_P1;HPM_P2
2021/05/23 00:00:50;;;;;;;6.75;4.35;;;22.60;58.20;;;;;;4405368;32;20064;-38
2021/05/23 00:03:16;;;;;;;6.15;3.87;;;22.60;58.30;;;;;;4405118;32;20054;-37
2021/05/23 00:05:44;;;;;;;8.40;4.50;;;22.50;58.50;;;;;;4404992;32;20099;-37
2021/05/23 00:08:14;;;;;;;12.82;7.57;;;22.40;58.70;;;;;;4405175;32;20568;-37
2021/05/23 00:10:53;;;;;;;7.72;5.53;;;22.40;59.20;;;;;;4390924;32;20062;-37
2021/05/23 00:13:24;;;;;;;8.02;4.22;;;22.40;59.20;;;;;;4405647;32;20139;-38
2021/05/23 00:15:58;;;;;;;10.10;5.57;;;22.30;59.20;;;;;;4405417;32;20596;-37
2021/05/23 00:18:25;;;;;;;16.52;9.88;;;22.20;59.70;;;;;;4404903;32;20053;-37
2021/05/23 00:20:52;;;;;;;8.75;4.50;;;22.20;60.00;;;;;;4399816;32;20081;-38
2021/05/23 00:23:19;;;;;;;10.70;6.28;;;22.10;60.00;;;;;;4389686;32;20068;-39
2021/05/23 00:25:45;;;;;;;7.37;5.03;;;22.10;60.10;;;;;;4389719;32;20064;-38
2021/05/23 00:28:12;;;;;;;5.22;3.60;;;22.10;60.30;;;;;;4389831;32;20165;-37
2021/05/23 00:30:39;;;;;;;6.28;4.45;;;22.10;60.40;;;;;;4375721;32;20149;-38
2021/05/23 00:33:07;;;;;;;7.30;4.35;;;22.10;60.40;;;;;;4389728;32;20161;-39
2021/05/23 00:35:34;;;;;;;8.32;6.18;;;22.10;60.80;;;;;;4374757;32;20092;-37
2021/05/23 00:38:00;;;;;;;9.48;4.55;;;22.00;60.80;;;;;;4389537;32;20090;-38
2021/05/23 00:40:27;;;;;;;10.68;6.43;;;22.10;60.90;;;;;;4389400;32;20497;-38
2021/05/23 00:42:53;;;;;;;7.87;4.43;;;22.00;60.90;;;;;;4389409;32;20065;-38
2021/05/23 00:45:20;;;;;;;6.47;4.43;;;22.00;61.00;;;;;;4375502;32;20092;-38
2021/05/23 00:47:46;;;;;;;4.60;2.97;;;22.00;61.00;;;;;;4389617;32;20104;-38
2021/05/23 00:50:19;;;;;;;13.32;5.70;;;22.10;61.00;;;;;;4375518;32;20084;-39
2021/05/23 00:52:45;;;;;;;5.32;3.50;;;22.10;60.90;;;;;;4389605;32;20089;-38
2021/05/23 00:55:12;;;;;;;8.75;5.00;;;22.10;60.60;;;;;;4389313;32;20056;-38
2021/05/23 00:57:38;;;;;;;7.55;4.72;;;22.10;60.80;;;;;;4389497;32;20085;-38
2021/05/23 01:00:06;;;;;;;9.20;4.25;;;22.10;60.70;;;;;;4375301;32;20077;-38
2021/05/23 01:02:45;;;;;;;8.98;5.30;;;22.10;60.80;;;;;;4388828;32;20061;-39
2021/05/23 01:05:21;;;;;;;4.53;3.50;;;22.20;60.60;;;;;;4389690;32;20157;-40
2021/05/23 01:07:47;;;;;;;5.18;3.83;;;22.20;60.60;;;;;;4389191;32;20161;-37
2021/05/23 01:10:17;;;;;;;7.90;5.62;;;22.30;60.30;;;;;;4389237;32;20427;-37
2021/05/23 01:12:53;;;;;;;8.68;5.22;;;22.30;60.30;;;;;;4375155;32;20163;-38
2021/05/23 01:15:43;;;;;;;10.55;5.90;;;22.30;60.00;;;;;;4388845;32;20053;-38
2021/05/23 01:18:15;;;;;;;6.75;4.28;;;22.30;60.10;;;;;;4389135;32;20065;-37
2021/05/23 01:20:58;;;;;;;13.38;5.00;;;22.30;60.00;;;;;;4392869;32;20129;-37
2021/05/23 01:23:25;;;;;;;8.55;4.37;;;22.30;59.90;;;;;;4392086;32;20054;-39
2021/05/23 01:25:56;;;;;;;6.72;3.37;;;22.40;59.90;;;;;;4404155;32;20574;-39
2021/05/23 01:28:22;;;;;;;7.75;5.12;;;22.40;59.80;;;;;;4378433;32;20077;-39
2021/05/23 01:30:51;;;;;;;7.93;6.57;;;22.50;59.70;;;;;;4390111;32;20069;-39
2021/05/23 01:33:19;;;;;;;9.52;3.67;;;22.50;59.60;;;;;;4403952;32;20108;-39
2021/05/23 01:35:51;;;;;;;7.68;3.80;;;22.60;59.30;;;;;;4377444;32;20058;-40
2021/05/23 01:38:19;;;;;;;2.65;1.55;;;22.70;59.10;;;;;;4377893;32;20176;-39
2021/05/23 01:40:47;;;;;;;3.67;1.40;;;22.70;58.90;;;;;;4389934;32;20157;-38
2021/05/23 01:43:14;;;;;;;9.43;3.92;;;22.90;58.50;;;;;;4404103;32;20065;-39
2021/05/23 01:45:40;;;;;;;11.73;5.57;;;23.10;58.10;;;;;;4377335;32;20108;-40
2021/05/23 01:48:08;;;;;;;10.45;6.65;;;23.20;57.70;;;;;;4389241;32;20085;-39
2021/05/23 01:50:35;;;;;;;7.22;4.87;;;23.40;57.40;;;;;;4389531;32;20568;-39
2021/05/23 01:53:03;;;;;;;4.93;2.70;;;23.60;57.00;;;;;;4404005;32;20065;-39
2021/05/23 01:55:30;;;;;;;8.13;3.12;;;23.70;56.10;;;;;;4403991;32;20085;-39
2021/05/23 01:57:56;;;;;;;1.50;1.40;;;23.80;55.60;;;;;;4343521;32;20101;-39
2021/05/23 02:00:39;;;;;;;4.30;2.28;;;23.90;55.20;;;;;;4343558;32;20161;-40
2021/05/23 02:03:08;;;;;;;7.37;1.83;;;24.00;55.20;;;;;;4340558;33;20075;-38
2021/05/23 02:05:35;;;;;;;6.30;2.45;;;24.00;54.90;;;;;;4341216;33;20142;-38
2021/05/23 02:08:02;;;;;;;7.20;3.10;;;24.10;54.70;;;;;;4328883;33;20066;-37
2021/05/23 02:10:29;;;;;;;4.50;2.05;;;24.20;54.40;;;;;;4341424;32;20059;-39
2021/05/23 02:12:57;;;;;;;8.02;2.55;;;24.20;54.20;;;;;;4340770;33;20089;-39
2021/05/23 02:15:24;;;;;;;11.68;2.90;;;24.40;53.90;;;;;;4328931;33;20059;-40
2021/05/23 02:17:50;;;;;;;4.45;3.40;;;24.50;53.60;;;;;;4328571;33;20098;-39
2021/05/23 02:20:20;;;;;;;6.50;1.98;;;24.70;53.30;;;;;;4340589;33;20090;-38
2021/05/23 02:22:48;;;;;;;8.02;2.55;;;24.90;52.70;;;;;;4341047;33;20067;-41
2021/05/23 02:25:18;;;;;;;5.03;2.33;;;25.00;52.40;;;;;;4340540;33;20472;-40
2021/05/23 02:27:50;;;;;;;3.60;2.42;;;25.00;51.60;;;;;;4340895;33;20160;-39
2021/05/23 02:30:19;;;;;;;4.43;1.55;;;25.10;51.20;;;;;;4370789;32;20070;-40
2021/05/23 02:32:46;;;;;;;3.53;2.00;;;25.10;50.90;;;;;;4370792;32;20125;-40
2021/05/23 02:35:14;;;;;;;13.80;1.85;;;25.20;51.00;;;;;;4370447;32;20605;-40
2021/05/23 02:37:41;;;;;;;3.45;2.37;;;25.20;50.70;;;;;;4370287;32;20115;-40
2021/05/23 02:40:14;;;;;;;2.78;2.15;;;25.20;50.60;;;;;;4381398;32;20052;-38
2021/05/23 02:42:40;;;;;;;1.40;1.23;;;25.20;50.40;;;;;;4403533;32;20073;-39
2021/05/23 02:45:10;;;;;;;4.72;2.20;;;25.30;50.40;;;;;;4403079;32;20142;-39
2021/05/23 02:47:37;;;;;;;3.47;2.58;;;25.30;50.40;;;;;;4403298;32;20060;-39
2021/05/23 02:50:10;;;;;;;7.43;2.85;;;25.30;50.10;;;;;;4376599;32;20112;-39
2021/05/23 02:52:36;;;;;;;2.33;1.92;;;25.30;50.10;;;;;;4402879;32;20093;-38
2021/05/23 02:55:08;;;;;;;4.50;1.83;;;25.40;49.90;;;;;;4388962;32;20069;-38
2021/05/23 02:57:36;;;;;;;2.08;1.27;;;25.50;49.70;;;;;;4389580;32;20061;-39
2021/05/23 03:00:05;;;;;;;4.28;1.80;;;25.50;49.40;;;;;;4405312;32;20103;-41
2021/05/23 03:02:32;;;;;;;1.33;1.23;;;25.70;49.10;;;;;;4406129;32;20468;-40
2021/05/23 03:04:58;;;;;;;3.95;1.20;;;25.80;49.50;;;;;;4406592;32;20073;-40
2021/05/23 03:07:25;;;;;;;3.10;1.80;;;26.00;48.50;;;;;;4405904;32;20490;-41
2021/05/23 03:09:51;;;;;;;7.62;2.03;;;26.10;48.20;;;;;;4406137;32;20072;-40
2021/05/23 03:12:18;;;;;;;6.15;1.48;;;26.40;47.80;;;;;;4406090;32;20081;-39
2021/05/23 03:14:44;;;;;;;2.92;1.83;;;26.50;47.30;;;;;;4406361;32;20093;-39
2021/05/23 03:17:11;;;;;;;6.80;1.10;;;26.70;46.80;;;;;;4405954;32;20065;-39
2021/05/23 03:19:38;;;;;;;2.95;1.35;;;26.80;46.40;;;;;;4405689;32;20078;-40
2021/05/23 03:22:06;;;;;;;5.50;1.00;;;26.90;46.00;;;;;;4393075;32;20158;-39
2021/05/23 03:24:33;;;;;;;3.70;1.33;;;27.00;45.70;;;;;;4391064;32;20534;-39
2021/05/23 03:27:00;;;;;;;1.12;0.40;;;27.10;45.40;;;;;;4391090;32;20157;-40
2021/05/23 03:29:27;;;;;;;2.75;1.23;;;27.20;45.00;;;;;;4389131;32;20073;-40
2021/05/23 03:31:53;;;;;;;5.57;1.30;;;27.30;45.00;;;;;;4389019;32;20100;-40
2021/05/23 03:34:20;;;;;;;3.83;1.60;;;27.30;44.80;;;;;;4390818;32;20146;-41
2021/05/23 03:36:46;;;;;;;0.98;0.80;;;27.40;44.50;;;;;;4390507;32;20146;-39
2021/05/23 03:39:12;;;;;;;1.20;0.93;;;27.40;44.30;;;;;;4390619;32;20066;-40
2021/05/23 03:41:39;;;;;;;4.90;1.23;;;27.50;44.20;;;;;;4390334;32;20089;-40
2021/05/23 03:44:06;;;;;;;6.87;0.70;;;27.50;44.00;;;;;;4388887;32;20126;-40
2021/05/23 03:46:32;;;;;;;2.95;0.77;;;27.50;43.90;;;;;;4389066;32;20522;-39
2021/05/23 03:48:59;;;;;;;7.97;1.60;;;27.50;43.90;;;;;;4390151;32;20093;-40
2021/05/23 03:51:26;;;;;;;4.60;0.85;;;27.60;43.70;;;;;;4390141;32;20101;-39
2021/05/23 03:53:52;;;;;;;2.35;1.20;;;27.80;43.50;;;;;;4376226;32;20518;-39
2021/05/23 03:56:19;;;;;;;1.95;1.00;;;27.90;43.10;;;;;;4390048;32;20074;-40
2021/05/23 03:58:45;;;;;;;2.83;1.25;;;28.00;43.00;;;;;;4390440;32;20058;-39
2021/05/23 04:01:12;;;;;;;5.93;1.52;;;28.20;42.30;;;;;;4390292;32;20522;-40
2021/05/23 04:03:38;;;;;;;1.23;0.52;;;28.30;42.10;;;;;;4388295;32;20066;-40
2021/05/23 04:06:05;;;;;;;5.12;1.85;;;28.50;41.80;;;;;;4390652;32;20069;-41
2021/05/23 04:08:31;;;;;;;3.17;0.65;;;28.60;41.60;;;;;;4390173;32;20077;-40
2021/05/23 04:11:09;;;;;;;4.15;1.30;;;28.80;41.50;;;;;;4389102;32;20105;-42
2021/05/23 04:13:38;;;;;;;7.15;0.70;;;29.10;41.10;;;;;;4390153;32;20053;-41
2021/05/23 04:16:06;;;;;;;1.60;0.60;;;29.20;40.60;;;;;;4388692;32;20064;-41
2021/05/23 04:18:32;;;;;;;6.47;1.48;;;29.50;40.30;;;;;;4389924;32;20064;-41
2021/05/23 04:20:59;;;;;;;1.37;1.10;;;29.70;39.90;;;;;;4389839;32;20543;-43
2021/05/23 04:23:25;;;;;;;6.43;1.15;;;29.90;39.60;;;;;;4375736;32;20050;-40
2021/05/23 04:25:52;;;;;;;5.55;1.20;;;30.20;39.40;;;;;;4375367;32;20092;-41
2021/05/23 04:28:19;;;;;;;3.05;0.73;;;30.50;39.10;;;;;;4389760;32;20806;-41
2021/05/23 04:30:45;;;;;;;9.07;0.80;;;30.70;38.30;;;;;;4389905;32;20072;-41
2021/05/23 04:33:12;;;;;;;6.80;1.85;;;30.90;37.90;;;;;;4375639;32;20137;-41
2021/05/23 04:35:38;;;;;;;7.93;1.40;;;31.10;37.70;;;;;;4389301;32;20147;-42
2021/05/23 04:38:05;;;;;;;1.83;0.50;;;31.30;37.00;;;;;;4389756;32;20185;-41
2021/05/23 04:40:32;;;;;;;4.62;1.90;;;31.50;36.90;;;;;;4389214;32;20069;-41
2021/05/23 04:42:58;;;;;;;14.05;2.50;;;31.70;36.00;;;;;;4389593;32;20098;-41
2021/05/23 04:45:25;;;;;;;1.70;0.77;;;32.00;36.10;;;;;;4375399;32;20097;-41
2021/05/23 04:47:51;;;;;;;4.40;1.70;;;32.20;35.50;;;;;;4389043;32;20583;-41
2021/05/23 04:50:18;;;;;;;3.83;1.30;;;32.40;35.20;;;;;;4389630;32;20069;-41
2021/05/23 04:52:44;;;;;;;4.70;0.98;;;32.60;34.70;;;;;;4389429;32;20093;-40
2021/05/23 04:55:11;;;;;;;5.78;1.10;;;32.80;34.70;;;;;;4389666;32;20068;-42
2021/05/23 04:57:38;;;;;;;2.50;0.77;;;32.90;33.80;;;;;;4390026;32;20057;-41
2021/05/23 05:00:08;;;;;;;5.35;0.65;;;33.10;33.70;;;;;;4389768;32;20499;-42
2021/05/23 05:02:35;;;;;;;9.13;1.55;;;33.30;33.80;;;;;;4389343;32;20066;-42
2021/05/23 05:05:04;;;;;;;2.30;0.90;;;33.40;33.00;;;;;;4375458;32;20087;-42
2021/05/23 05:07:31;;;;;;;3.70;0.62;;;33.50;31.50;;;;;;4389272;32;20054;-40
2021/05/23 05:09:58;;;;;;;1.87;0.80;;;33.60;31.20;;;;;;4389292;32;20169;-41
2021/05/23 05:12:24;;;;;;;3.10;0.82;;;33.50;30.70;;;;;;4389383;32;20084;-41
2021/05/23 05:14:50;;;;;;;4.25;1.23;;;33.40;31.00;;;;;;4388802;32;20465;-41
2021/05/23 05:17:17;;;;;;;9.68;1.42;;;33.40;30.90;;;;;;4388853;32;20058;-41
2021/05/23 05:19:43;;;;;;;5.72;1.15;;;33.30;30.80;;;;;;4389338;32;20051;-39
2021/05/23 05:22:10;;;;;;;5.32;1.25;;;33.10;30.50;;;;;;4402451;32;20080;-41
2021/05/23 05:24:36;;;;;;;3.17;1.00;;;33.00;30.80;;;;;;4404115;32;20049;-42
2021/05/23 05:27:03;;;;;;;3.42;1.12;;;32.90;31.40;;;;;;4403851;32;20509;-42
2021/05/23 05:29:30;;;;;;;7.30;0.98;;;33.00;31.60;;;;;;4404038;32;20065;-41
2021/05/23 05:31:56;;;;;;;1.58;0.50;;;33.20;32.50;;;;;;4403761;32;20065;-41
2021/05/23 05:34:23;;;;;;;19.30;1.80;;;33.20;31.30;;;;;;4389799;32;20061;-42
2021/05/23 05:36:49;;;;;;;4.32;0.52;;;33.40;30.80;;;;;;4403492;32;20561;-41
2021/05/23 05:39:16;;;;;;;4.78;1.37;;;33.40;30.80;;;;;;4403568;32;20061;-40
2021/05/23 05:41:42;;;;;;;6.20;1.02;;;33.60;31.00;;;;;;4403551;32;20521;-42
2021/05/23 05:44:11;;;;;;;1.77;0.40;;;33.70;31.10;;;;;;4403968;32;20547;-42
2021/05/23 05:46:37;;;;;;;3.12;0.50;;;33.80;30.80;;;;;;4403686;32;20042;-41
2021/05/23 05:49:04;;;;;;;2.62;0.77;;;33.90;30.30;;;;;;4403653;32;20553;-40
2021/05/23 05:51:30;;;;;;;2.60;0.80;;;34.00;30.00;;;;;;4403434;32;20513;-42
2021/05/23 05:53:57;;;;;;;2.65;0.70;;;34.10;29.70;;;;;;4403468;32;20061;-40
2021/05/23 05:56:23;;;;;;;12.85;1.58;;;34.10;29.70;;;;;;4403184;32;20465;-40
2021/05/23 05:58:50;;;;;;;5.35;0.85;;;33.90;29.40;;;;;;4403951;32;20120;-39
2021/05/23 06:01:16;;;;;;;3.35;0.75;;;33.80;29.60;;;;;;4403421;32;20141;-42
2021/05/23 06:03:43;;;;;;;2.92;0.57;;;33.80;29.80;;;;;;4403349;32;20693;-42
2021/05/23 06:06:09;;;;;;;6.28;1.55;;;33.90;29.90;;;;;;4403601;32;20111;-41
2021/05/23 06:08:36;;;;;;;5.97;0.60;;;34.00;29.60;;;;;;4403325;32;20069;-40
2021/05/23 06:11:02;;;;;;;5.32;0.98;;;34.10;29.50;;;;;;4403531;32;20081;-41
2021/05/23 06:13:29;;;;;;;6.85;0.90;;;34.30;29.70;;;;;;4389130;32;20077;-40
2021/05/23 06:15:55;;;;;;;1.87;0.73;;;34.50;29.60;;;;;;4403308;32;20513;-41
2021/05/23 06:18:28;;;;;;;8.35;1.33;;;34.60;29.60;;;;;;4403343;32;20473;-41
2021/05/23 06:20:55;;;;;;;2.12;0.60;;;34.80;29.60;;;;;;4397617;32;20069;-41
2021/05/23 06:23:21;;;;;;;5.68;0.80;;;34.80;29.30;;;;;;4362065;32;20086;-42
2021/05/23 06:25:48;;;;;;;5.72;0.70;;;35.00;29.40;;;;;;4387929;32;20517;-41
2021/05/23 06:28:14;;;;;;;1.85;0.80;;;35.10;29.10;;;;;;4373784;32;20062;-41
2021/05/23 06:30:41;;;;;;;6.10;0.90;;;35.20;29.00;;;;;;4388254;32;20151;-41
2021/05/23 06:33:07;;;;;;;6.32;1.23;;;35.30;28.90;;;;;;4387717;32;20533;-42
2021/05/23 06:35:34;;;;;;;6.37;0.65;;;35.40;28.70;;;;;;4387960;32;20097;-41
2021/05/23 06:38:01;;;;;;;5.85;1.00;;;35.40;28.10;;;;;;4388379;32;20072;-41
2021/05/23 06:40:27;;;;;;;1.17;0.57;;;35.30;28.40;;;;;;4374180;32;20158;-40
2021/05/23 06:42:54;;;;;;;5.30;0.60;;;35.10;28.50;;;;;;4373692;32;20069;-41
2021/05/23 06:45:20;;;;;;;3.58;0.68;;;35.10;28.70;;;;;;4388075;32;20552;-42
2021/05/23 06:47:47;;;;;;;0.32;0.30;;;35.00;28.90;;;;;;4373365;32;20085;-41
2021/05/23 06:50:14;;;;;;;4.45;0.90;;;34.90;29.20;;;;;;4373903;32;20524;-42
2021/05/23 06:52:40;;;;;;;5.30;0.90;;;34.80;29.30;;;;;;4387687;32;20076;-41
2021/05/23 06:55:07;;;;;;;0.88;0.37;;;34.80;29.30;;;;;;4374210;32;20062;-42
2021/05/23 06:57:34;;;;;;;3.70;0.88;;;34.80;29.50;;;;;;4387504;32;20140;-41
2021/05/23 07:00:00;;;;;;;9.63;1.00;;;35.00;30.00;;;;;;4387472;32;20089;-42
2021/05/23 07:02:30;;;;;;;9.27;0.82;;;35.20;29.50;;;;;;4386156;32;20137;-41
2021/05/23 07:04:59;;;;;;;15.00;1.12;;;35.30;28.80;;;;;;4387782;32;20070;-42
2021/05/23 07:07:26;;;;;;;2.45;0.80;;;35.60;28.40;;;;;;4387586;32;20078;-41
2021/05/23 07:09:52;;;;;;;2.33;0.40;;;35.70;27.40;;;;;;4387814;32;20069;-41
2021/05/23 07:12:19;;;;;;;4.97;0.80;;;35.80;27.20;;;;;;4387828;32;20120;-41
2021/05/23 07:14:45;;;;;;;0.20;0.20;;;35.80;27.10;;;;;;4388178;32;20517;-42
2021/05/23 07:17:12;;;;;;;2.37;0.68;;;35.80;27.30;;;;;;4387636;32;20058;-41
2021/05/23 07:19:38;;;;;;;1.00;0.40;;;35.80;27.30;;;;;;4387714;32;20088;-41
2021/05/23 07:22:05;;;;;;;6.60;0.62;;;35.90;27.40;;;;;;4400154;32;20512;-42
2021/05/23 07:24:31;;;;;;;1.55;0.70;;;36.10;27.30;;;;;;4402981;32;20147;-40
2021/05/23 07:26:57;;;;;;;11.00;1.70;;;36.20;27.30;;;;;;4402925;32;20487;-41
2021/05/23 07:29:24;;;;;;;10.20;0.90;;;36.40;27.60;;;;;;4388345;32;20644;-40
2021/05/23 07:31:50;;;;;;;12.57;1.27;;;36.70;27.50;;;;;;4402429;32;20085;-42
2021/05/23 07:34:17;;;;;;;5.07;1.35;;;36.90;27.50;;;;;;4402930;32;20074;-40
2021/05/23 07:36:43;;;;;;;10.65;0.90;;;37.00;27.40;;;;;;4388712;32;20509;-42
2021/05/23 07:39:10;;;;;;;3.78;0.93;;;37.00;27.80;;;;;;4402574;32;20173;-38
2021/05/23 07:41:36;;;;;;;1.15;0.50;;;37.10;27.70;;;;;;4402983;32;20073;-40
2021/05/23 07:44:03;;;;;;;6.72;1.50;;;37.20;27.90;;;;;;4402444;32;20069;-41
2021/05/23 07:46:30;;;;;;;9.68;1.27;;;37.10;28.00;;;;;;4404098;32;20210;-40
2021/05/23 07:48:57;;;;;;;5.37;0.90;;;37.20;28.10;;;;;;4405260;32;20065;-40
2021/05/23 07:51:23;;;;;;;8.02;1.45;;;37.20;28.20;;;;;;4405406;32;20061;-41
2021/05/23 07:53:51;;;;;;;4.87;1.05;;;37.00;28.20;;;;;;4405664;32;20146;-41
2021/05/23 07:56:18;;;;;;;11.85;1.12;;;37.00;28.60;;;;;;4405541;32;20445;-40
2021/05/23 07:58:45;;;;;;;12.05;1.60;;;37.10;28.70;;;;;;4391257;32;20489;-42
2021/05/23 08:01:13;;;;;;;4.28;0.57;;;37.20;28.70;;;;;;4405467;32;20057;-41
2021/05/23 08:03:40;;;;;;;5.65;1.05;;;37.40;28.60;;;;;;4405288;32;20125;-39
2021/05/23 08:06:08;;;;;;;8.70;1.30;;;37.40;28.50;;;;;;4405161;32;20536;-41
2021/05/23 08:08:38;;;;;;;9.57;1.37;;;37.60;28.60;;;;;;4405164;32;20536;-42
2021/05/23 08:11:04;;;;;;;6.32;1.35;;;37.70;28.50;;;;;;4404852;32;20088;-40
2021/05/23 08:13:30;;;;;;;13.13;1.45;;;37.80;28.00;;;;;;4405048;32;20058;-40
2021/05/23 08:15:58;;;;;;;8.30;1.05;;;37.90;27.80;;;;;;4391004;32;20136;-41
2021/05/23 08:18:29;;;;;;;16.87;1.05;;;37.90;27.90;;;;;;4402192;32;20239;-42
2021/05/23 08:20:59;;;;;;;9.43;0.93;;;38.00;28.00;;;;;;4396521;32;20462;-41
2021/05/23 08:23:26;;;;;;;13.02;1.35;;;38.20;27.70;;;;;;4387589;32;20518;-40
2021/05/23 08:25:53;;;;;;;6.22;0.73;;;38.30;27.70;;;;;;4386918;32;20525;-41
2021/05/23 08:28:20;;;;;;;9.43;1.02;;;38.30;27.00;;;;;;4387114;32;20109;-41
2021/05/23 08:30:47;;;;;;;14.13;1.75;;;38.50;27.10;;;;;;4387286;32;20073;-42
2021/05/23 08:33:13;;;;;;;11.90;0.77;;;38.70;27.10;;;;;;4387505;32;20157;-42
2021/05/23 08:35:40;;;;;;;6.72;0.35;;;38.80;26.90;;;;;;4387116;32;20093;-42
2021/05/23 08:38:07;;;;;;;10.23;1.42;;;39.00;26.90;;;;;;4374377;32;20089;-44
2021/05/23 08:40:37;;;;;;;7.93;1.23;;;39.20;26.80;;;;;;4387255;32;20134;-43
2021/05/23 08:43:07;;;;;;;5.90;0.88;;;39.40;26.60;;;;;;4386791;32;20061;-43
2021/05/23 08:45:34;;;;;;;11.93;1.40;;;39.50;26.70;;;;;;4387045;32;20581;-42
2021/05/23 08:48:01;;;;;;;7.75;1.45;;;39.60;26.80;;;;;;4386874;32;20549;-44
2021/05/23 08:50:27;;;;;;;8.50;1.42;;;39.80;26.80;;;;;;4386694;32;20081;-43
2021/05/23 08:52:58;;;;;;;11.88;1.17;;;40.10;26.80;;;;;;4374280;32;20149;-42
2021/05/23 08:55:25;;;;;;;5.12;0.90;;;40.40;26.50;;;;;;4387355;32;20074;-44
2021/05/23 08:57:54;;;;;;;5.32;0.82;;;40.60;26.40;;;;;;4389110;32;20055;-41
2021/05/23 09:00:21;;;;;;;14.38;1.37;;;40.90;26.20;;;;;;4389710;32;20085;-43
2021/05/23 09:02:52;;;;;;;12.30;0.90;;;41.00;25.90;;;;;;4389510;32;20107;-43
2021/05/23 09:05:50;;;;;;;5.87;0.90;;;41.10;25.40;;;;;;4389525;32;20498;-44
2021/05/23 09:08:22;;;;;;;6.43;1.67;;;41.20;25.30;;;;;;4375664;32;20081;-43
2021/05/23 09:10:50;;;;;;;9.07;0.60;;;41.30;24.60;;;;;;4389039;32;20077;-43
2021/05/23 09:13:38;;;;;;;9.43;1.10;;;41.30;24.30;;;;;;4389169;32;20141;-43
2021/05/23 09:16:10;;;;;;;6.85;0.90;;;41.30;24.60;;;;;;4374922;32;20116;-44
2021/05/23 09:18:50;;;;;;;13.70;2.65;;;41.40;24.40;;;;;;4388925;32;20069;-43
2021/05/23 09:21:23;;;;;;;5.10;0.82;;;41.60;24.60;;;;;;4397055;32;20176;-45
2021/05/23 09:23:52;;;;;;;6.93;0.87;;;41.70;24.40;;;;;;4390461;32;20069;-45
2021/05/23 09:26:27;;;;;;;8.68;1.10;;;41.80;24.40;;;;;;4404054;32;20144;-45
2021/05/23 09:28:55;;;;;;;4.43;1.05;;;41.90;24.50;;;;;;4390039;32;20057;-42
2021/05/23 09:31:24;;;;;;;7.85;0.88;;;42.10;24.20;;;;;;4404112;32;20054;-45
2021/05/23 09:33:52;;;;;;;6.70;1.12;;;42.40;24.20;;;;;;4389973;32;20076;-44
2021/05/23 09:36:20;;;;;;;6.80;0.90;;;42.70;24.10;;;;;;4403514;32;20610;-43
2021/05/23 09:38:54;;;;;;;5.28;1.20;;;43.00;23.90;;;;;;4403818;32;20068;-46
2021/05/23 09:41:32;;;;;;;9.25;0.95;;;43.40;23.70;;;;;;4404206;32;20154;-46
2021/05/23 09:44:22;;;;;;;10.60;1.10;;;43.70;23.20;;;;;;4403840;32;20069;-44
2021/05/23 09:47:09;;;;;;;6.37;1.12;;;44.10;23.30;;;;;;4403576;32;20081;-44
2021/05/23 09:49:56;;;;;;;5.80;1.12;;;44.50;23.10;;;;;;4404019;32;20080;-45
2021/05/23 09:52:34;;;;;;;8.07;1.37;;;44.70;22.90;;;;;;4403846;32;20053;-44
2021/05/23 09:55:01;;;;;;;7.45;1.00;;;45.00;22.40;;;;;;4403565;32;20057;-46
2021/05/23 09:57:28;;;;;;;7.28;1.23;;;45.30;22.30;;;;;;4388932;32;20078;-44
2021/05/23 10:00:08;;;;;;;10.88;2.60;;;45.50;22.20;;;;;;4403772;32;20057;-44
2021/05/23 10:02:54;;;;;;;7.97;1.23;;;45.60;22.00;;;;;;4403191;32;20446;-43
2021/05/23 10:05:21;;;;;;;10.15;1.10;;;45.80;21.90;;;;;;4391730;32;20530;-48
2021/05/23 10:07:47;;;;;;;4.75;1.10;;;45.90;22.10;;;;;;4403150;32;20069;-43
2021/05/23 10:10:14;;;;;;;7.47;1.20;;;46.00;21.80;;;;;;4402549;32;20242;-43
2021/05/23 10:12:41;;;;;;;5.03;1.17;;;46.10;21.90;;;;;;4402927;32;20068;-45
2021/05/23 10:15:10;;;;;;;9.25;1.40;;;46.20;21.80;;;;;;4403917;32;20076;-44
2021/05/23 10:17:38;;;;;;;13.85;1.17;;;46.20;21.60;;;;;;4402912;32;20068;-44
2021/05/23 10:20:07;;;;;;;10.27;1.00;;;46.30;21.50;;;;;;4402625;32;20144;-44
2021/05/23 10:22:38;;;;;;;15.02;1.23;;;46.30;21.60;;;;;;4388052;32;20509;-44
2021/05/23 10:25:09;;;;;;;29.17;1.20;;;46.30;21.20;;;;;;4387812;32;20097;-43
2021/05/23 10:27:42;;;;;;;8.45;1.37;;;46.50;20.70;;;;;;4374284;32;20066;-44
2021/05/23 10:30:10;;;;;;;7.60;1.02;;;46.60;20.70;;;;;;4374644;32;20142;-45
2021/05/23 10:32:37;;;;;;;3.62;1.12;;;46.70;20.70;;;;;;4387696;32;20070;-46
2021/05/23 10:35:24;;;;;;;3.37;0.80;;;46.90;20.90;;;;;;4388055;32;20065;-47
2021/05/23 10:37:52;;;;;;;8.27;1.37;;;47.10;20.80;;;;;;4387919;32;20514;-45
2021/05/23 10:40:26;;;;;;;4.95;1.10;;;47.30;20.50;;;;;;4388233;32;20070;-47
2021/05/23 10:42:55;;;;;;;5.55;0.73;;;47.40;20.30;;;;;;4388105;32;20058;-46
2021/05/23 10:45:30;;;;;;;8.95;1.17;;;47.60;20.30;;;;;;4388012;32;20060;-45
2021/05/23 10:47:58;;;;;;;6.72;0.82;;;47.70;20.10;;;;;;4374349;32;20441;-46
2021/05/23 10:50:35;;;;;;;5.18;1.00;;;47.80;20.30;;;;;;4361700;32;20073;-45
2021/05/23 10:53:01;;;;;;;11.55;0.98;;;47.70;20.40;;;;;;4387837;32;20070;-44
2021/05/23 10:55:28;;;;;;;6.12;0.95;;;47.70;20.60;;;;;;4387946;32;20502;-47
2021/05/23 10:57:56;;;;;;;7.47;1.08;;;47.80;20.60;;;;;;4374102;32;20062;-46
2021/05/23 11:00:24;;;;;;;5.25;0.90;;;47.70;20.30;;;;;;4387788;32;20081;-45
2021/05/23 11:02:52;;;;;;;4.30;1.12;;;47.70;20.20;;;;;;4387784;32;20102;-45
2021/05/23 11:05:27;;;;;;;7.53;0.90;;;47.70;20.20;;;;;;4387747;32;20057;-46
2021/05/23 11:08:03;;;;;;;7.72;0.70;;;47.80;20.40;;;;;;4387911;32;20069;-46
2021/05/23 11:10:42;;;;;;;8.13;0.85;;;47.80;20.30;;;;;;4387971;32;20592;-43
2021/05/23 11:13:30;;;;;;;8.82;0.85;;;47.80;20.40;;;;;;4387658;32;20469;-45
2021/05/23 11:16:17;;;;;;;3.10;1.12;;;47.90;20.50;;;;;;4388155;32;20066;-45
2021/05/23 11:18:44;;;;;;;5.28;0.85;;;48.00;20.50;;;;;;4387719;32;20081;-46
2021/05/23 11:21:12;;;;;;;6.30;0.70;;;47.80;20.40;;;;;;4397297;32;20193;-46
2021/05/23 11:23:51;;;;;;;12.32;1.17;;;47.60;20.50;;;;;;4405459;32;20544;-45
2021/05/23 11:26:18;;;;;;;3.85;0.60;;;47.40;20.50;;;;;;4391884;32;20655;-46
2021/05/23 11:28:55;;;;;;;4.22;0.60;;;47.10;20.70;;;;;;4391448;32;20093;-43
2021/05/23 11:31:26;;;;;;;8.85;1.20;;;46.90;20.70;;;;;;4405816;32;20161;-44
2021/05/23 11:33:53;;;;;;;7.28;0.80;;;46.60;20.80;;;;;;4392149;32;20061;-43
2021/05/23 11:36:21;;;;;;;5.53;1.60;;;46.40;20.80;;;;;;4391144;32;20083;-45
2021/05/23 11:38:47;;;;;;;6.50;0.80;;;46.30;21.30;;;;;;4405665;32;20076;-42
2021/05/23 11:41:15;;;;;;;7.50;0.90;;;46.40;21.20;;;;;;4405046;32;20167;-45
2021/05/23 11:43:41;;;;;;;12.90;1.00;;;46.40;21.00;;;;;;4379060;32;20542;-44
2021/05/23 11:46:08;;;;;;;5.35;0.82;;;46.60;21.30;;;;;;4378541;32;20064;-44
2021/05/23 11:48:39;;;;;;;13.25;1.00;;;46.70;21.00;;;;;;4391164;32;20054;-44
2021/05/23 11:51:13;;;;;;;6.57;1.00;;;46.90;21.20;;;;;;4391117;32;20085;-43
2021/05/23 11:53:47;;;;;;;3.97;1.15;;;47.00;21.30;;;;;;4404979;32;20133;-45
2021/05/23 11:56:19;;;;;;;14.15;1.92;;;46.90;21.00;;;;;;4391925;32;20149;-43
2021/05/23 11:58:59;;;;;;;12.50;1.15;;;46.80;20.70;;;;;;4405065;32;20598;-44
2021/05/23 12:01:31;;;;;;;15.00;0.90;;;46.70;20.30;;;;;;4404979;32;20141;-45
2021/05/23 12:04:12;;;;;;;8.00;1.30;;;46.80;20.30;;;;;;4405420;32;20100;-43
2021/05/23 12:06:50;;;;;;;12.15;1.20;;;47.00;20.40;;;;;;4405210;32;20507;-44
2021/05/23 12:09:28;;;;;;;10.43;1.20;;;47.20;20.70;;;;;;4404908;32;20073;-45
2021/05/23 12:12:02;;;;;;;20.08;2.03;;;47.40;20.60;;;;;;4404924;32;20081;-45
2021/05/23 12:14:33;;;;;;;7.35;1.23;;;47.60;20.50;;;;;;4404940;32;20058;-45
2021/05/23 12:17:17;;;;;;;10.60;2.00;;;47.60;20.50;;;;;;4404915;32;20148;-44
2021/05/23 12:19:55;;;;;;;13.60;1.60;;;47.70;20.70;;;;;;4405006;32;20594;-45
2021/05/23 12:22:35;;;;;;;16.48;1.60;;;47.60;20.70;;;;;;4390019;32;20086;-45
2021/05/23 12:25:05;;;;;;;8.82;1.10;;;47.50;21.00;;;;;;4389505;32;20088;-47
2021/05/23 12:27:46;;;;;;;9.98;0.90;;;47.40;21.00;;;;;;4371600;32;20077;-46
2021/05/23 12:30:27;;;;;;;10.40;1.15;;;47.40;20.70;;;;;;4371903;32;20166;-46
2021/05/23 12:33:07;;;;;;;19.10;2.37;;;47.30;20.60;;;;;;4371484;32;20481;-46
2021/05/23 12:35:34;;;;;;;13.77;0.90;;;47.10;20.50;;;;;;4372145;32;20066;-43
2021/05/23 12:38:05;;;;;;;17.40;2.35;;;47.00;20.40;;;;;;4372106;32;20061;-46
2021/05/23 12:40:42;;;;;;;15.30;1.83;;;46.90;20.40;;;;;;4372200;32;20085;-45
2021/05/23 12:43:23;;;;;;;15.00;1.37;;;47.00;21.10;;;;;;4371501;32;20059;-47
2021/05/23 12:46:00;;;;;;;9.90;1.67;;;47.20;21.20;;;;;;4359279;32;20062;-44
2021/05/23 12:48:31;;;;;;;14.85;1.60;;;47.40;21.40;;;;;;4371948;32;20078;-45
2021/05/23 12:50:58;;;;;;;8.07;1.48;;;47.40;21.50;;;;;;4371863;32;20094;-45
2021/05/23 12:53:26;;;;;;;16.15;2.65;;;47.30;21.60;;;;;;4371937;32;20071;-43
2021/05/23 12:55:54;;;;;;;12.18;2.17;;;47.30;21.90;;;;;;4371766;32;20072;-46